La Suprema — IBIL — position and weather

sailwx.info

Track history (hours):
 
Tides and Currents Weather Stations Pressure Air Temp Water Temp Dewpoint Dewpoint Depression Visibility Wind Speed Wind Dir Waves Ship Positions

La Suprema

Last reported at 2015-Mar-30 08:14 UTC. Time now 2015-Mar-30 09:22 UTC.
Position N 44°25' E 008°55'.

Length 211 m; draft 7.3 m.

Type: Passenger vessel. MMSI: 247083700.

Date/timePositionNaut miles runAvg speedWind from/ knotsBaromVisibWave heightAir tempDewpointWater temp
2015-Mar-30 08:14N 44°25' E 008°55'0 0.0
2015-Mar-30 07:22N 44°25' E 008°55'0 0.0
2015-Mar-30 06:31N 44°25' E 008°55'0 0.0
2015-Mar-30 05:28N 44°25' E 008°55'0 0.0
2015-Mar-30 04:27N 44°25' E 008°55'1 0.1
2015-Mar-29 17:33N 44°24' E 008°55'1818.6
2015-Mar-29 16:33N 44°08' E 009°09'2121.3
2015-Mar-29 15:33N 43°50' E 009°24'2222.0
2015-Mar-29 14:34N 43°31' E 009°39'2424.4
2015-Mar-29 13:33N 43°10' E 009°56'2424.0
2015-Mar-29 12:33N 42°46' E 010°03'29024.2
2015-Mar-29 00:34N 38°33' E 013°08'2423.9
2015-Mar-28 23:34N 38°13' E 013°25'5 5.0
2015-Mar-28 22:31N 38°08' E 013°22'0 0.0
2015-Mar-28 21:33N 38°08' E 013°22'0 0.0
2015-Mar-28 20:33N 38°08' E 013°22'0 0.0
2015-Mar-28 19:33N 38°08' E 013°22'0 0.0
2015-Mar-28 18:32N 38°08' E 013°22'4 4.0
2015-Mar-28 17:33N 38°11' E 013°24'2120.8
2015-Mar-28 16:33N 38°29' E 013°11'29023.7
2015-Mar-28 04:20N 42°36' E 009°51'1923.8
2015-Mar-28 03:31N 42°54' E 009°41'2323.6
2015-Mar-28 02:33N 43°16' E 009°31'2423.7
2015-Mar-28 01:34N 43°38' E 009°19'2424.2
2015-Mar-28 00:34N 44°01' E 009°08'2323.5
2015-Mar-27 23:34N 44°23' E 008°57'2 2.3
2015-Mar-27 22:33N 44°25' E 008°55'0 0.0
2015-Mar-27 20:14N 44°25' E 008°55'0 0.0
2015-Mar-27 19:32N 44°25' E 008°55'0 0.3
2015-Mar-27 18:33N 44°24' E 008°55'7 6.9
2015-Mar-27 17:33N 44°19' E 009°00'2121.0
2015-Mar-27 16:33N 44°00' E 009°15'2121.1
2015-Mar-27 15:33N 43°42' E 009°30'2121.3
2015-Mar-27 14:33N 43°24' E 009°45'2121.0
2015-Mar-27 13:33N 43°06' E 010°01'29822.8
2015-Mar-27 00:28N 38°42' E 013°01'2224.1
2015-Mar-26 23:34N 38°23' E 013°16'1615.4
2015-Mar-26 22:32N 38°08' E 013°22'0 0.0
2015-Mar-26 21:32N 38°08' E 013°22'0 0.0
2015-Mar-26 20:31N 38°08' E 013°22'0 0.0
2015-Mar-26 19:31N 38°08' E 013°22'0 0.0
2015-Mar-26 18:33N 38°08' E 013°22'5 5.0
2015-Mar-26 17:33N 38°12' E 013°24'2423.7
2015-Mar-26 16:33N 38°33' E 013°08'31622.3
2015-Mar-26 02:24N 43°05' E 009°36'1720.7
2015-Mar-26 01:33N 43°21' E 009°27'2120.9
2015-Mar-26 00:33N 43°41' E 009°17'2121.2
2015-Mar-25 23:33N 44°01' E 009°07'2120.9
2015-Mar-25 22:34N 44°20' E 008°58'4 0.8
2015-Mar-25 17:33N 44°24' E 008°55'2019.8
2015-Mar-25 16:34N 44°07' E 009°10'2323.4
2015-Mar-25 15:34N 43°47' E 009°26'2423.7
2015-Mar-25 14:34N 43°27' E 009°44'32524.1
2015-Mar-25 01:03N 38°38' E 013°03'1224.3
2015-Mar-25 00:33N 38°28' E 013°11'2322.6
2015-Mar-24 23:33N 38°09' E 013°25'3 2.8
2015-Mar-24 22:32N 38°08' E 013°22'0 0.0
2015-Mar-24 21:33N 38°08' E 013°22'0 0.0
2015-Mar-24 20:32N 38°08' E 013°22'0 0.0
2015-Mar-24 19:32N 38°08' E 013°22'0 0.0
2015-Mar-24 18:31N 38°08' E 013°22'2 1.7
2015-Mar-24 17:34N 38°08' E 013°24'1616.2
2015-Mar-24 16:33N 38°23' E 013°16'33022.8
2015-Mar-24 02:03N 43°08' E 009°34'1020.2
2015-Mar-24 01:34N 43°17' E 009°29'2121.1
2015-Mar-24 00:33N 43°37' E 009°19'2120.9
2015-Mar-23 23:34N 43°57' E 009°10'2121.1
2015-Mar-23 22:34N 44°17' E 008°60'9 7.8
2015-Mar-23 21:27N 44°25' E 008°55'0 0.0
2015-Mar-23 20:27N 44°25' E 008°55'0 0.0
2015-Mar-23 19:32N 44°25' E 008°55'0 0.0
2015-Mar-23 18:26N 44°25' E 008°55'0 0.0
2015-Mar-23 17:20N 44°25' E 008°55'0 0.0
2015-Mar-23 16:19N 44°25' E 008°55'0 0.0
2015-Mar-23 15:25N 44°25' E 008°55'0 0.0
2015-Mar-23 14:24N 44°25' E 008°55'0 0.0
2015-Mar-23 13:24N 44°25' E 008°55'0 0.0
2015-Mar-23 12:23N 44°25' E 008°55'0 0.0
2015-Mar-23 11:23N 44°25' E 008°55'0 0.0
2015-Mar-23 10:28N 44°25' E 008°55'0 0.0
2015-Mar-23 09:33N 44°25' E 008°55'0 0.0
2015-Mar-23 08:28N 44°25' E 008°55'0 0.0
2015-Mar-23 07:28N 44°25' E 008°55'0 0.0
2015-Mar-23 06:28N 44°25' E 008°55'1 0.1
2015-Mar-22 18:31N 44°24' E 008°55'1818.9
2015-Mar-22 17:34N 44°09' E 009°09'2120.5
2015-Mar-22 16:34N 43°51' E 009°23'2020.2
2015-Mar-22 15:33N 43°33' E 009°37'2221.6
2015-Mar-22 14:34N 43°15' E 009°52'33924.2
2015-Mar-22 00:33N 38°15' E 013°23'8 7.5
2015-Mar-21 23:33N 38°08' E 013°22'0 0.0
2015-Mar-21 22:23N 38°08' E 013°22'0 0.0
2015-Mar-21 21:32N 38°08' E 013°22'0 0.0
2015-Mar-21 20:13N 38°08' E 013°22'0 0.0
2015-Mar-21 19:22N 38°08' E 013°22'0 0.0
2015-Mar-21 18:33N 38°08' E 013°22'9 9.5
2015-Mar-21 17:34N 38°17' E 013°21'30422.6
2015-Mar-21 04:06N 42°36' E 009°51'1120.4
2015-Mar-21 03:33N 42°47' E 009°46'2020.0
2015-Mar-21 02:33N 43°05' E 009°36'2020.5
2015-Mar-21 01:33N 43°25' E 009°26'2120.6
2015-Mar-21 00:34N 43°44' E 009°16'2120.7
2015-Mar-20 23:33N 44°03' E 009°06'2020.4
2015-Mar-20 22:33N 44°22' E 008°57'2 1.9
2015-Mar-20 21:15N 44°25' E 008°55'0 0.0
2015-Mar-20 20:33N 44°25' E 008°55'0 0.0
2015-Mar-20 19:33N 44°25' E 008°55'0 0.0
2015-Mar-20 18:32N 44°25' E 008°55'5 4.8
2015-Mar-20 17:34N 44°21' E 008°59'2525.0
2015-Mar-20 16:34N 43°59' E 009°17'2524.8
2015-Mar-20 15:34N 43°38' E 009°34'2524.8
2015-Mar-20 14:34N 43°16' E 009°51'4721.6
2015-Mar-20 12:23N 42°33' E 010°16'  
Track history (hours):
 
Tides and Currents Weather Stations Pressure Air Temp Water Temp Dewpoint Dewpoint Depression Visibility Wind Speed Wind Dir Waves Ship Positions

La Suprema

Last reported at 2015-Mar-30 08:14 UTC. Time now 2015-Mar-30 09:22 UTC.
Position N 44°25' E 008°55'.

Length 211 m; draft 7.3 m.

Type: Passenger vessel. MMSI: 247083700.

Date/timePositionNaut miles runAvg speedWind from/ knotsBaromVisibWave heightAir tempDewpointWater temp
2015-Mar-30 08:14N 44°25' E 008°55'0 0.0
2015-Mar-30 07:22N 44°25' E 008°55'0 0.0
2015-Mar-30 06:31N 44°25' E 008°55'0 0.0
2015-Mar-30 05:28N 44°25' E 008°55'0 0.0
2015-Mar-30 04:27N 44°25' E 008°55'1 0.1
2015-Mar-29 17:33N 44°24' E 008°55'1818.6
2015-Mar-29 16:33N 44°08' E 009°09'2121.3
2015-Mar-29 15:33N 43°50' E 009°24'2222.0
2015-Mar-29 14:34N 43°31' E 009°39'2424.4
2015-Mar-29 13:33N 43°10' E 009°56'2424.0
2015-Mar-29 12:33N 42°46' E 010°03'29024.2
2015-Mar-29 00:34N 38°33' E 013°08'2423.9
2015-Mar-28 23:34N 38°13' E 013°25'5 5.0
2015-Mar-28 22:31N 38°08' E 013°22'0 0.0
2015-Mar-28 21:33N 38°08' E 013°22'0 0.0
2015-Mar-28 20:33N 38°08' E 013°22'0 0.0
2015-Mar-28 19:33N 38°08' E 013°22'0 0.0
2015-Mar-28 18:32N 38°08' E 013°22'4 4.0
2015-Mar-28 17:33N 38°11' E 013°24'2120.8
2015-Mar-28 16:33N 38°29' E 013°11'29023.7
2015-Mar-28 04:20N 42°36' E 009°51'1923.8
2015-Mar-28 03:31N 42°54' E 009°41'2323.6
2015-Mar-28 02:33N 43°16' E 009°31'2423.7
2015-Mar-28 01:34N 43°38' E 009°19'2424.2
2015-Mar-28 00:34N 44°01' E 009°08'2323.5
2015-Mar-27 23:34N 44°23' E 008°57'2 2.3
2015-Mar-27 22:33N 44°25' E 008°55'0 0.0
2015-Mar-27 20:14N 44°25' E 008°55'0 0.0
2015-Mar-27 19:32N 44°25' E 008°55'0 0.3
2015-Mar-27 18:33N 44°24' E 008°55'7 6.9
2015-Mar-27 17:33N 44°19' E 009°00'2121.0
2015-Mar-27 16:33N 44°00' E 009°15'2121.1
2015-Mar-27 15:33N 43°42' E 009°30'2121.3
2015-Mar-27 14:33N 43°24' E 009°45'2121.0
2015-Mar-27 13:33N 43°06' E 010°01'29822.8
2015-Mar-27 00:28N 38°42' E 013°01'2224.1
2015-Mar-26 23:34N 38°23' E 013°16'1615.4
2015-Mar-26 22:32N 38°08' E 013°22'0 0.0
2015-Mar-26 21:32N 38°08' E 013°22'0 0.0
2015-Mar-26 20:31N 38°08' E 013°22'0 0.0
2015-Mar-26 19:31N 38°08' E 013°22'0 0.0
2015-Mar-26 18:33N 38°08' E 013°22'5 5.0
2015-Mar-26 17:33N 38°12' E 013°24'2423.7
2015-Mar-26 16:33N 38°33' E 013°08'31622.3
2015-Mar-26 02:24N 43°05' E 009°36'1720.7
2015-Mar-26 01:33N 43°21' E 009°27'2120.9
2015-Mar-26 00:33N 43°41' E 009°17'2121.2
2015-Mar-25 23:33N 44°01' E 009°07'2120.9
2015-Mar-25 22:34N 44°20' E 008°58'4 0.8
2015-Mar-25 17:33N 44°24' E 008°55'2019.8
2015-Mar-25 16:34N 44°07' E 009°10'2323.4
2015-Mar-25 15:34N 43°47' E 009°26'2423.7
2015-Mar-25 14:34N 43°27' E 009°44'32524.1
2015-Mar-25 01:03N 38°38' E 013°03'1224.3
2015-Mar-25 00:33N 38°28' E 013°11'2322.6
2015-Mar-24 23:33N 38°09' E 013°25'3 2.8
2015-Mar-24 22:32N 38°08' E 013°22'0 0.0
2015-Mar-24 21:33N 38°08' E 013°22'0 0.0
2015-Mar-24 20:32N 38°08' E 013°22'0 0.0
2015-Mar-24 19:32N 38°08' E 013°22'0 0.0
2015-Mar-24 18:31N 38°08' E 013°22'2 1.7
2015-Mar-24 17:34N 38°08' E 013°24'1616.2
2015-Mar-24 16:33N 38°23' E 013°16'33022.8
2015-Mar-24 02:03N 43°08' E 009°34'1020.2
2015-Mar-24 01:34N 43°17' E 009°29'2121.1
2015-Mar-24 00:33N 43°37' E 009°19'2120.9
2015-Mar-23 23:34N 43°57' E 009°10'2121.1
2015-Mar-23 22:34N 44°17' E 008°60'9 7.8
2015-Mar-23 21:27N 44°25' E 008°55'0 0.0
2015-Mar-23 20:27N 44°25' E 008°55'0 0.0
2015-Mar-23 19:32N 44°25' E 008°55'0 0.0
2015-Mar-23 18:26N 44°25' E 008°55'0 0.0
2015-Mar-23 17:20N 44°25' E 008°55'0 0.0
2015-Mar-23 16:19N 44°25' E 008°55'0 0.0
2015-Mar-23 15:25N 44°25' E 008°55'0 0.0
2015-Mar-23 14:24N 44°25' E 008°55'0 0.0
2015-Mar-23 13:24N 44°25' E 008°55'0 0.0
2015-Mar-23 12:23N 44°25' E 008°55'0 0.0
2015-Mar-23 11:23N 44°25' E 008°55'0 0.0
2015-Mar-23 10:28N 44°25' E 008°55'0 0.0
2015-Mar-23 09:33N 44°25' E 008°55'0 0.0
2015-Mar-23 08:28N 44°25' E 008°55'0 0.0
2015-Mar-23 07:28N 44°25' E 008°55'0 0.0
2015-Mar-23 06:28N 44°25' E 008°55'1 0.1
2015-Mar-22 18:31N 44°24' E 008°55'1818.9
2015-Mar-22 17:34N 44°09' E 009°09'2120.5
2015-Mar-22 16:34N 43°51' E 009°23'2020.2
2015-Mar-22 15:33N 43°33' E 009°37'2221.6
2015-Mar-22 14:34N 43°15' E 009°52'33924.2
2015-Mar-22 00:33N 38°15' E 013°23'8 7.5
2015-Mar-21 23:33N 38°08' E 013°22'0 0.0
2015-Mar-21 22:23N 38°08' E 013°22'0 0.0
2015-Mar-21 21:32N 38°08' E 013°22'0 0.0
2015-Mar-21 20:13N 38°08' E 013°22'0 0.0
2015-Mar-21 19:22N 38°08' E 013°22'0 0.0
2015-Mar-21 18:33N 38°08' E 013°22'9 9.5
2015-Mar-21 17:34N 38°17' E 013°21'30422.6
2015-Mar-21 04:06N 42°36' E 009°51'1120.4
2015-Mar-21 03:33N 42°47' E 009°46'2020.0
2015-Mar-21 02:33N 43°05' E 009°36'2020.5
2015-Mar-21 01:33N 43°25' E 009°26'2120.6
2015-Mar-21 00:34N 43°44' E 009°16'2120.7
2015-Mar-20 23:33N 44°03' E 009°06'2020.4
2015-Mar-20 22:33N 44°22' E 008°57'2 1.9
2015-Mar-20 21:15N 44°25' E 008°55'0 0.0
2015-Mar-20 20:33N 44°25' E 008°55'0 0.0
2015-Mar-20 19:33N 44°25' E 008°55'0 0.0
2015-Mar-20 18:32N 44°25' E 008°55'5 4.8
2015-Mar-20 17:34N 44°21' E 008°59'2525.0
2015-Mar-20 16:34N 43°59' E 009°17'2524.8
2015-Mar-20 15:34N 43°38' E 009°34'2524.8
2015-Mar-20 14:34N 43°16' E 009°51'4721.6
2015-Mar-20 12:23N 42°33' E 010°16'  

Dump ship's entire track history